sensor_id;sensor_type;location;lat;lon;timestamp;pressure;altitude;pressure_sealevel;temperature;humidity
48622;BME280;34421;48.944;9.460;2023-11-21T00:00:13;97894.88;;;10.73;76.42
48622;BME280;34421;48.944;9.460;2023-11-21T00:02:39;97894.19;;;10.78;75.92
48622;BME280;34421;48.944;9.460;2023-11-21T00:05:07;97895.00;;;10.79;76.69
48622;BME280;34421;48.944;9.460;2023-11-21T00:07:33;97889.69;;;10.79;76.37
48622;BME280;34421;48.944;9.460;2023-11-21T00:09:58;97887.03;;;10.79;76.71
48622;BME280;34421;48.944;9.460;2023-11-21T00:12:24;97895.00;;;10.79;76.43
48622;BME280;34421;48.944;9.460;2023-11-21T00:14:50;97888.06;;;10.78;76.78
48622;BME280;34421;48.944;9.460;2023-11-21T00:17:15;97893.41;;;10.78;77.45
48622;BME280;34421;48.944;9.460;2023-11-21T00:19:40;97896.06;;;10.78;76.50
48622;BME280;34421;48.944;9.460;2023-11-21T00:22:08;97893.16;;;10.79;76.15
48622;BME280;34421;48.944;9.460;2023-11-21T00:24:34;97890.72;;;10.78;76.36
48622;BME280;34421;48.944;9.460;2023-11-21T00:27:00;97881.56;;;10.73;76.35
48622;BME280;34421;48.944;9.460;2023-11-21T00:29:25;97883.66;;;10.71;77.44
48622;BME280;34421;48.944;9.460;2023-11-21T00:31:51;97883.34;;;10.61;76.61
48622;BME280;34421;48.944;9.460;2023-11-21T00:34:16;97882.34;;;10.62;76.88
48622;BME280;34421;48.944;9.460;2023-11-21T00:36:41;97877.81;;;10.63;77.62
48622;BME280;34421;48.944;9.460;2023-11-21T00:39:07;97881.44;;;10.68;76.74
48622;BME280;34421;48.944;9.460;2023-11-21T00:41:32;97884.09;;;10.68;77.99
48622;BME280;34421;48.944;9.460;2023-11-21T00:43:58;97880.38;;;10.69;77.89
48622;BME280;34421;48.944;9.460;2023-11-21T00:46:24;97877.28;;;10.72;77.34
48622;BME280;34421;48.944;9.460;2023-11-21T00:48:52;97883.56;;;10.78;77.41
48622;BME280;34421;48.944;9.460;2023-11-21T00:51:19;97878.81;;;10.80;77.36
48622;BME280;34421;48.944;9.460;2023-11-21T00:53:44;97884.94;;;10.81;76.81
48622;BME280;34421;48.944;9.460;2023-11-21T00:56:10;97886.34;;;10.83;76.90
48622;BME280;34421;48.944;9.460;2023-11-21T00:58:35;97883.91;;;10.82;77.11
48622;BME280;34421;48.944;9.460;2023-11-21T01:01:00;97880.69;;;10.80;76.49
48622;BME280;34421;48.944;9.460;2023-11-21T01:03:26;97881.09;;;10.77;76.01
48622;BME280;34421;48.944;9.460;2023-11-21T01:05:51;97881.09;;;10.77;76.63
48622;BME280;34421;48.944;9.460;2023-11-21T01:08:16;97882.50;;;10.79;77.13
48622;BME280;34421;48.944;9.460;2023-11-21T01:10:42;97876.97;;;10.81;77.37
48622;BME280;34421;48.944;9.460;2023-11-21T01:13:07;97883.91;;;10.82;77.30
48622;BME280;34421;48.944;9.460;2023-11-21T01:15:35;97881.84;;;10.84;76.39
48622;BME280;34421;48.944;9.460;2023-11-21T01:18:01;97882.19;;;10.87;77.52
48622;BME280;34421;48.944;9.460;2023-11-21T01:20:26;97872.59;;;10.86;76.96
48622;BME280;34421;48.944;9.460;2023-11-21T01:22:51;97869.13;;;10.86;77.13
48622;BME280;34421;48.944;9.460;2023-11-21T01:25:19;97876.28;;;10.85;76.14
48622;BME280;34421;48.944;9.460;2023-11-21T01:27:44;97876.88;;;10.87;76.46
48622;BME280;34421;48.944;9.460;2023-11-21T01:30:10;97876.06;;;10.87;76.08
48622;BME280;34421;48.944;9.460;2023-11-21T01:32:38;97876.06;;;10.87;77.18
48622;BME280;34421;48.944;9.460;2023-11-21T01:35:05;97878.94;;;10.85;77.49
48622;BME280;34421;48.944;9.460;2023-11-21T01:37:31;97874.06;;;10.82;76.64
48622;BME280;34421;48.944;9.460;2023-11-21T01:39:58;97879.63;;;10.81;77.97
48622;BME280;34421;48.944;9.460;2023-11-21T01:42:24;97881.47;;;10.80;77.04
48622;BME280;34421;48.944;9.460;2023-11-21T01:44:49;97873.25;;;10.82;77.53
48622;BME280;34421;48.944;9.460;2023-11-21T01:47:15;97876.72;;;10.82;77.41
48622;BME280;34421;48.944;9.460;2023-11-21T01:49:44;97878.38;;;10.83;77.13
48622;BME280;34421;48.944;9.460;2023-11-21T01:52:10;97876.50;;;10.84;77.85
48622;BME280;34421;48.944;9.460;2023-11-21T01:54:37;97873.59;;;10.85;77.48
48622;BME280;34421;48.944;9.460;2023-11-21T01:57:03;97878.72;;;10.87;76.41
48622;BME280;34421;48.944;9.460;2023-11-21T01:59:34;97882.88;;;10.83;77.70
48622;BME280;34421;48.944;9.460;2023-11-21T02:02:00;97880.22;;;10.83;77.49
48622;BME280;34421;48.944;9.460;2023-11-21T02:04:25;97869.56;;;10.83;78.30
48622;BME280;34421;48.944;9.460;2023-11-21T02:06:51;97875.09;;;10.81;78.30
48622;BME280;34421;48.944;9.460;2023-11-21T02:09:16;97885.75;;;10.81;78.59
48622;BME280;34421;48.944;9.460;2023-11-21T02:11:43;97886.31;;;10.71;78.21
48622;BME280;34421;48.944;9.460;2023-11-21T02:14:09;97888.97;;;10.71;78.19
48622;BME280;34421;48.944;9.460;2023-11-21T02:16:35;97881.66;;;10.67;78.63
48622;BME280;34421;48.944;9.460;2023-11-21T02:19:01;97873.16;;;10.58;79.25
48622;BME280;34421;48.944;9.460;2023-11-21T02:21:28;97877.66;;;10.58;78.37
48622;BME280;34421;48.944;9.460;2023-11-21T02:23:55;97872.13;;;10.59;79.49
48622;BME280;34421;48.944;9.460;2023-11-21T02:26:21;97869.47;;;10.59;79.07
48622;BME280;34421;48.944;9.460;2023-11-21T02:28:46;97869.59;;;10.64;79.24
48622;BME280;34421;48.944;9.460;2023-11-21T02:31:11;97870.53;;;10.70;79.12
48622;BME280;34421;48.944;9.460;2023-11-21T02:33:37;97869.88;;;10.75;78.47
48622;BME280;34421;48.944;9.460;2023-11-21T02:36:03;97859.78;;;10.77;78.74
48622;BME280;34421;48.944;9.460;2023-11-21T02:38:28;97854.03;;;10.80;77.81
48622;BME280;34421;48.944;9.460;2023-11-21T02:40:55;97864.25;;;10.83;78.53
48622;BME280;34421;48.944;9.460;2023-11-21T02:43:20;97866.66;;;10.84;77.76
48622;BME280;34421;48.944;9.460;2023-11-21T02:45:45;97865.41;;;10.87;77.72
48622;BME280;34421;48.944;9.460;2023-11-21T02:48:11;97866.22;;;10.87;77.87
48622;BME280;34421;48.944;9.460;2023-11-21T02:50:36;97861.94;;;10.86;79.00
48622;BME280;34421;48.944;9.460;2023-11-21T02:53:02;97858.00;;;10.89;78.19
48622;BME280;34421;48.944;9.460;2023-11-21T02:55:28;97860.69;;;10.89;77.87
48622;BME280;34421;48.944;9.460;2023-11-21T02:57:54;97864.13;;;10.89;78.89
48622;BME280;34421;48.944;9.460;2023-11-21T03:00:21;97866.56;;;10.91;78.02
48622;BME280;34421;48.944;9.460;2023-11-21T03:02:49;97854.75;;;10.87;78.58
48622;BME280;34421;48.944;9.460;2023-11-21T03:05:14;97863.19;;;10.84;79.27
48622;BME280;34421;48.944;9.460;2023-11-21T03:07:40;97857.88;;;10.84;78.54
48622;BME280;34421;48.944;9.460;2023-11-21T03:10:06;97857.63;;;10.85;78.59
48622;BME280;34421;48.944;9.460;2023-11-21T03:12:34;97860.53;;;10.84;78.62
48622;BME280;34421;48.944;9.460;2023-11-21T03:14:59;97867.25;;;10.86;78.79
48622;BME280;34421;48.944;9.460;2023-11-21T03:17:25;97868.66;;;10.89;77.89
48622;BME280;34421;48.944;9.460;2023-11-21T03:19:50;97872.94;;;10.90;77.66
48622;BME280;34421;48.944;9.460;2023-11-21T03:22:17;97872.25;;;10.94;78.72
48622;BME280;34421;48.944;9.460;2023-11-21T03:24:42;97867.28;;;10.98;77.61
48622;BME280;34421;48.944;9.460;2023-11-21T03:27:07;97865.78;;;11.02;77.87
48622;BME280;34421;48.944;9.460;2023-11-21T03:29:33;97870.91;;;11.04;78.58
48622;BME280;34421;48.944;9.460;2023-11-21T03:31:58;97876.78;;;11.06;77.33
48622;BME280;34421;48.944;9.460;2023-11-21T03:34:26;97864.28;;;11.06;77.25
48622;BME280;34421;48.944;9.460;2023-11-21T03:36:51;97868.59;;;11.07;78.06
48622;BME280;34421;48.944;9.460;2023-11-21T03:39:17;97866.13;;;11.06;78.37
48622;BME280;34421;48.944;9.460;2023-11-21T03:41:42;97871.25;;;11.07;77.34
48622;BME280;34421;48.944;9.460;2023-11-21T03:44:08;97875.78;;;11.07;77.46
48622;BME280;34421;48.944;9.460;2023-11-21T03:46:33;97874.13;;;11.06;78.07
48622;BME280;34421;48.944;9.460;2023-11-21T03:48:58;97871.72;;;11.04;78.25
48622;BME280;34421;48.944;9.460;2023-11-21T03:51:24;97876.22;;;11.04;78.30
48622;BME280;34421;48.944;9.460;2023-11-21T03:53:49;97870.06;;;11.03;77.27
48622;BME280;34421;48.944;9.460;2023-11-21T03:56:14;97879.72;;;11.04;78.47
48622;BME280;34421;48.944;9.460;2023-11-21T03:58:40;97877.50;;;11.01;78.19
48622;BME280;34421;48.944;9.460;2023-11-21T04:01:05;97871.56;;;10.99;78.92
48622;BME280;34421;48.944;9.460;2023-11-21T04:03:31;97880.03;;;10.96;78.71
48622;BME280;34421;48.944;9.460;2023-11-21T04:05:56;97876.75;;;10.94;78.37
48622;BME280;34421;48.944;9.460;2023-11-21T04:08:22;97881.28;;;10.93;78.56
48622;BME280;34421;48.944;9.460;2023-11-21T04:10:47;97880.47;;;10.93;79.03
48622;BME280;34421;48.944;9.460;2023-11-21T04:13:13;97877.22;;;10.91;79.53
48622;BME280;34421;48.944;9.460;2023-11-21T04:15:38;97877.66;;;10.88;79.26
48622;BME280;34421;48.944;9.460;2023-11-21T04:18:04;97877.91;;;10.86;78.59
48622;BME280;34421;48.944;9.460;2023-11-21T04:20:29;97876.50;;;10.84;79.04
48622;BME280;34421;48.944;9.460;2023-11-21T04:22:55;97878.94;;;10.85;79.32
48622;BME280;34421;48.944;9.460;2023-11-21T04:25:20;97878.13;;;10.85;79.20
48622;BME280;34421;48.944;9.460;2023-11-21T04:27:45;97880.22;;;10.83;78.61
48622;BME280;34421;48.944;9.460;2023-11-21T04:30:12;97875.91;;;10.82;78.84
48622;BME280;34421;48.944;9.460;2023-11-21T04:32:37;97885.56;;;10.83;79.83
48622;BME280;34421;48.944;9.460;2023-11-21T04:35:04;97881.59;;;10.85;79.80
48622;BME280;34421;48.944;9.460;2023-11-21T04:37:30;97884.84;;;10.87;79.42
48622;BME280;34421;48.944;9.460;2023-11-21T04:39:55;97883.59;;;10.90;79.90
48622;BME280;34421;48.944;9.460;2023-11-21T04:42:21;97891.13;;;10.93;79.36
48622;BME280;34421;48.944;9.460;2023-11-21T04:44:47;97894.38;;;10.95;78.51
48622;BME280;34421;48.944;9.460;2023-11-21T04:47:12;97890.47;;;10.98;78.34
48622;BME280;34421;48.944;9.460;2023-11-21T04:49:37;97888.59;;;10.98;78.11
48622;BME280;34421;48.944;9.460;2023-11-21T04:52:03;97897.63;;;10.97;78.19
48622;BME280;34421;48.944;9.460;2023-11-21T04:54:30;97895.19;;;10.95;78.74
48622;BME280;34421;48.944;9.460;2023-11-21T04:56:56;97893.00;;;10.92;79.34
48622;BME280;34421;48.944;9.460;2023-11-21T04:59:21;97892.63;;;10.89;79.01
48622;BME280;34421;48.944;9.460;2023-11-21T05:01:49;97900.84;;;10.87;79.70
48622;BME280;34421;48.944;9.460;2023-11-21T05:04:15;97892.03;;;10.87;79.39
48622;BME280;34421;48.944;9.460;2023-11-21T05:06:40;97898.41;;;10.86;80.32
48622;BME280;34421;48.944;9.460;2023-11-21T05:09:05;97896.75;;;10.85;79.23
48622;BME280;34421;48.944;9.460;2023-11-21T05:11:30;97899.66;;;10.83;79.10
48622;BME280;34421;48.944;9.460;2023-11-21T05:13:57;97897.22;;;10.82;79.30
48622;BME280;34421;48.944;9.460;2023-11-21T05:16:25;97899.53;;;10.78;79.36
48622;BME280;34421;48.944;9.460;2023-11-21T05:18:50;97904.84;;;10.78;80.19
48622;BME280;34421;48.944;9.460;2023-11-21T05:21:16;97907.50;;;10.78;79.61
48622;BME280;34421;48.944;9.460;2023-11-21T05:23:41;97908.56;;;10.77;79.82
48622;BME280;34421;48.944;9.460;2023-11-21T05:26:06;97916.75;;;10.76;79.87
48622;BME280;34421;48.944;9.460;2023-11-21T05:28:32;97925.34;;;10.78;80.29
48622;BME280;34421;48.944;9.460;2023-11-21T05:30:57;97920.03;;;10.78;79.56
48622;BME280;34421;48.944;9.460;2023-11-21T05:33:23;97924.09;;;10.80;79.31
48622;BME280;34421;48.944;9.460;2023-11-21T05:35:48;97930.44;;;10.79;80.40
48622;BME280;34421;48.944;9.460;2023-11-21T05:38:14;97929.63;;;10.79;80.02
48622;BME280;34421;48.944;9.460;2023-11-21T05:40:39;97940.06;;;10.80;79.81
48622;BME280;34421;48.944;9.460;2023-11-21T05:43:05;97940.63;;;10.82;79.10
48622;BME280;34421;48.944;9.460;2023-11-21T05:45:30;97935.56;;;10.81;79.53
48622;BME280;34421;48.944;9.460;2023-11-21T05:47:55;97939.81;;;10.82;79.61
48622;BME280;34421;48.944;9.460;2023-11-21T05:50:21;97935.56;;;10.81;79.02
48622;BME280;34421;48.944;9.460;2023-11-21T05:52:47;97936.34;;;10.81;79.51
48622;BME280;34421;48.944;9.460;2023-11-21T05:55:13;97935.31;;;10.82;78.90
48622;BME280;34421;48.944;9.460;2023-11-21T05:57:40;97941.47;;;10.83;78.73
48622;BME280;34421;48.944;9.460;2023-11-21T06:00:07;97941.84;;;10.86;79.45
48622;BME280;34421;48.944;9.460;2023-11-21T06:02:46;97944.84;;;10.90;79.53
48622;BME280;34421;48.944;9.460;2023-11-21T06:05:12;97943.22;;;10.89;78.56
48622;BME280;34421;48.944;9.460;2023-11-21T06:07:38;97951.22;;;10.89;79.29
48622;BME280;34421;48.944;9.460;2023-11-21T06:10:04;97953.88;;;10.89;79.35
48622;BME280;34421;48.944;9.460;2023-11-21T06:12:35;97957.34;;;10.89;78.56
48622;BME280;34421;48.944;9.460;2023-11-21T06:15:04;97956.41;;;10.84;78.32
48622;BME280;34421;48.944;9.460;2023-11-21T06:17:31;97964.59;;;10.82;78.90
48622;BME280;34421;48.944;9.460;2023-11-21T06:19:56;97968.09;;;10.83;78.72
48622;BME280;34421;48.944;9.460;2023-11-21T06:22:22;97964.84;;;10.81;79.87
48622;BME280;34421;48.944;9.460;2023-11-21T06:24:47;97974.91;;;10.79;79.88
48622;BME280;34421;48.944;9.460;2023-11-21T06:27:12;97967.50;;;10.81;79.66
48622;BME280;34421;48.944;9.460;2023-11-21T06:29:38;97979.31;;;10.85;79.96
48622;BME280;34421;48.944;9.460;2023-11-21T06:32:04;97971.78;;;10.82;79.79
48622;BME280;34421;48.944;9.460;2023-11-21T06:34:30;97981.03;;;10.79;78.95
48622;BME280;34421;48.944;9.460;2023-11-21T06:36:56;97974.44;;;10.82;78.92
48622;BME280;34421;48.944;9.460;2023-11-21T06:39:21;97976.91;;;10.83;79.17
48622;BME280;34421;48.944;9.460;2023-11-21T06:41:50;97980.13;;;10.85;80.49
48622;BME280;34421;48.944;9.460;2023-11-21T06:44:16;97982.59;;;10.87;79.99
48622;BME280;34421;48.944;9.460;2023-11-21T06:46:41;97982.59;;;10.87;79.89
48622;BME280;34421;48.944;9.460;2023-11-21T06:49:08;97987.91;;;10.87;79.22
48622;BME280;34421;48.944;9.460;2023-11-21T06:51:33;97987.91;;;10.87;80.34
48622;BME280;34421;48.944;9.460;2023-11-21T06:53:58;97995.09;;;10.86;80.67
48622;BME280;34421;48.944;9.460;2023-11-21T06:56:24;97989.53;;;10.88;79.21
48622;BME280;34421;48.944;9.460;2023-11-21T06:58:49;97987.47;;;10.90;79.96
48622;BME280;34421;48.944;9.460;2023-11-21T07:01:17;97986.22;;;10.92;79.39
48622;BME280;34421;48.944;9.460;2023-11-21T07:03:42;97991.91;;;10.96;80.60
48622;BME280;34421;48.944;9.460;2023-11-21T07:06:08;98003.16;;;10.98;80.03
48622;BME280;34421;48.944;9.460;2023-11-21T07:08:33;98012.31;;;11.02;80.51
48622;BME280;34421;48.944;9.460;2023-11-21T07:10:59;98005.47;;;11.06;79.50
48622;BME280;34421;48.944;9.460;2023-11-21T07:13:25;98013.25;;;11.08;80.17
48622;BME280;34421;48.944;9.460;2023-11-21T07:15:51;98023.69;;;11.09;80.02
48622;BME280;34421;48.944;9.460;2023-11-21T07:18:17;98018.94;;;11.11;80.26
48622;BME280;34421;48.944;9.460;2023-11-21T07:20:42;98017.03;;;11.18;79.11
48622;BME280;34421;48.944;9.460;2023-11-21T07:23:08;98017.59;;;11.21;78.58
48622;BME280;34421;48.944;9.460;2023-11-21T07:25:33;98022.47;;;11.24;78.85
48622;BME280;34421;48.944;9.460;2023-11-21T07:27:59;98022.25;;;11.25;78.45
48622;BME280;34421;48.944;9.460;2023-11-21T07:30:25;98028.56;;;11.31;79.20
48622;BME280;34421;48.944;9.460;2023-11-21T07:32:51;98027.03;;;11.35;79.26
48622;BME280;34421;48.944;9.460;2023-11-21T07:35:16;98033.34;;;11.40;79.74
48622;BME280;34421;48.944;9.460;2023-11-21T07:37:41;98034.50;;;11.45;79.26
48622;BME280;34421;48.944;9.460;2023-11-21T07:40:08;98031.75;;;11.51;79.29
48622;BME280;34421;48.944;9.460;2023-11-21T07:42:34;98043.59;;;11.55;79.28
48622;BME280;34421;48.944;9.460;2023-11-21T07:45:00;98034.69;;;11.61;78.65
48622;BME280;34421;48.944;9.460;2023-11-21T07:47:25;98038.88;;;11.69;78.07
48622;BME280;34421;48.944;9.460;2023-11-21T07:49:53;98042.47;;;11.75;77.67
48622;BME280;34421;48.944;9.460;2023-11-21T07:52:18;98049.66;;;11.74;78.47
48622;BME280;34421;48.944;9.460;2023-11-21T07:54:46;98045.84;;;11.70;77.87
48622;BME280;34421;48.944;9.460;2023-11-21T07:57:11;98056.16;;;11.67;78.26
48622;BME280;34421;48.944;9.460;2023-11-21T07:59:39;98057.75;;;11.68;77.96
48622;BME280;34421;48.944;9.460;2023-11-21T08:02:06;98051.63;;;11.67;78.89
48622;BME280;34421;48.944;9.460;2023-11-21T08:04:31;98057.75;;;11.68;78.88
48622;BME280;34421;48.944;9.460;2023-11-21T08:06:57;98058.94;;;11.72;78.76
48622;BME280;34421;48.944;9.460;2023-11-21T08:09:22;98064.25;;;11.72;78.21
48622;BME280;34421;48.944;9.460;2023-11-21T08:11:49;98070.44;;;11.72;78.66
48622;BME280;34421;48.944;9.460;2023-11-21T08:14:15;98071.44;;;11.71;78.40
48622;BME280;34421;48.944;9.460;2023-11-21T08:16:40;98072.25;;;11.72;78.33
48622;BME280;34421;48.944;9.460;2023-11-21T08:19:06;98072.25;;;11.72;78.50
48622;BME280;34421;48.944;9.460;2023-11-21T08:21:31;98076.13;;;11.76;78.72
48622;BME280;34421;48.944;9.460;2023-11-21T08:23:56;98075.66;;;11.79;78.12
48622;BME280;34421;48.944;9.460;2023-11-21T08:26:22;98076.59;;;11.84;77.93
48622;BME280;34421;48.944;9.460;2023-11-21T08:28:47;98072.81;;;11.92;78.36
48622;BME280;34421;48.944;9.460;2023-11-21T08:31:13;98071.81;;;12.05;77.56
48622;BME280;34421;48.944;9.460;2023-11-21T08:33:38;98075.06;;;12.19;77.74
48622;BME280;34421;48.944;9.460;2023-11-21T08:36:10;98071.84;;;12.28;77.09
48622;BME280;34421;48.944;9.460;2023-11-21T08:38:38;98078.94;;;12.35;77.20
48622;BME280;34421;48.944;9.460;2023-11-21T08:41:07;98079.63;;;12.42;77.20
48622;BME280;34421;48.944;9.460;2023-11-21T08:43:37;98076.97;;;12.53;76.69
48622;BME280;34421;48.944;9.460;2023-11-21T08:46:08;98082.63;;;12.69;76.08
48622;BME280;34421;48.944;9.460;2023-11-21T08:48:36;98083.69;;;12.91;75.12
48622;BME280;34421;48.944;9.460;2023-11-21T08:51:01;98087.81;;;13.11;74.35
48622;BME280;34421;48.944;9.460;2023-11-21T08:53:26;98090.34;;;13.29;74.03
48622;BME280;34421;48.944;9.460;2023-11-21T08:55:52;98092.25;;;13.57;72.88
48622;BME280;34421;48.944;9.460;2023-11-21T08:58:19;98083.16;;;13.87;72.26
48622;BME280;34421;48.944;9.460;2023-11-21T09:00:44;98087.94;;;14.19;71.29
48622;BME280;34421;48.944;9.460;2023-11-21T09:03:11;98087.78;;;14.42;70.32
48622;BME280;34421;48.944;9.460;2023-11-21T09:05:40;98090.00;;;14.62;69.72
48622;BME280;34421;48.944;9.460;2023-11-21T09:08:05;98087.03;;;15.19;68.52
48622;BME280;34421;48.944;9.460;2023-11-21T09:10:32;98093.41;;;15.84;66.34
48622;BME280;34421;48.944;9.460;2023-11-21T09:12:58;98091.78;;;16.80;63.64
48622;BME280;34421;48.944;9.460;2023-11-21T09:15:24;98095.09;;;17.55;61.43
48622;BME280;34421;48.944;9.460;2023-11-21T09:17:50;98097.91;;;17.96;59.79
48622;BME280;34421;48.944;9.460;2023-11-21T09:20:15;98099.72;;;17.75;59.38
48622;BME280;34421;48.944;9.460;2023-11-21T09:22:41;98100.34;;;17.24;59.80
48622;BME280;34421;48.944;9.460;2023-11-21T09:25:07;98103.69;;;16.94;59.91
48622;BME280;34421;48.944;9.460;2023-11-21T09:27:34;98108.31;;;16.99;58.84
48622;BME280;34421;48.944;9.460;2023-11-21T09:30:01;98114.00;;;17.13;58.70
48622;BME280;34421;48.944;9.460;2023-11-21T09:32:26;98101.97;;;17.20;58.40
48622;BME280;34421;48.944;9.460;2023-11-21T09:34:51;98108.56;;;17.60;57.79
48622;BME280;34421;48.944;9.460;2023-11-21T09:37:17;98102.50;;;18.16;56.87
48622;BME280;34421;48.944;9.460;2023-11-21T09:39:44;98106.75;;;19.09;54.83
48622;BME280;34421;48.944;9.460;2023-11-21T09:42:12;98107.97;;;19.42;53.66
48622;BME280;34421;48.944;9.460;2023-11-21T09:47:07;98117.78;;;19.88;51.98
48622;BME280;34421;48.944;9.460;2023-11-21T09:49:37;98115.66;;;19.79;51.80
48622;BME280;34421;48.944;9.460;2023-11-21T09:52:04;98119.31;;;19.44;51.82
48622;BME280;34421;48.944;9.460;2023-11-21T09:54:31;98117.28;;;19.05;52.28
48622;BME280;34421;48.944;9.460;2023-11-21T09:56:58;98121.91;;;18.64;52.29
48622;BME280;34421;48.944;9.460;2023-11-21T09:59:25;98126.75;;;18.16;52.90
48622;BME280;34421;48.944;9.460;2023-11-21T10:01:56;98126.63;;;17.65;53.38
48622;BME280;34421;48.944;9.460;2023-11-21T10:04:23;98127.19;;;17.09;54.19
48622;BME280;34421;48.944;9.460;2023-11-21T10:06:50;98124.44;;;16.61;55.69
48622;BME280;34421;48.944;9.460;2023-11-21T10:09:15;98128.41;;;16.22;57.12
48622;BME280;34421;48.944;9.460;2023-11-21T10:11:42;98128.94;;;15.91;58.34
48622;BME280;34421;48.944;9.460;2023-11-21T10:14:12;98128.97;;;15.69;59.17
48622;BME280;34421;48.944;9.460;2023-11-21T10:16:40;98130.50;;;15.43;59.72
48622;BME280;34421;48.944;9.460;2023-11-21T10:19:09;98132.19;;;15.27;60.20
48622;BME280;34421;48.944;9.460;2023-11-21T10:21:35;98128.88;;;15.20;60.52
48622;BME280;34421;48.944;9.460;2023-11-21T10:24:01;98133.91;;;15.17;60.33
48622;BME280;34421;48.944;9.460;2023-11-21T10:26:28;98137.34;;;15.12;61.11
48622;BME280;34421;48.944;9.460;2023-11-21T10:29:00;98137.09;;;15.14;61.61
48622;BME280;34421;48.944;9.460;2023-11-21T10:31:33;98134.19;;;15.15;61.66
48622;BME280;34421;48.944;9.460;2023-11-21T10:34:16;98140.81;;;15.30;61.47
48622;BME280;34421;48.944;9.460;2023-11-21T10:36:41;98139.00;;;15.35;60.82
48622;BME280;34421;48.944;9.460;2023-11-21T10:39:07;98140.81;;;15.30;61.29
48622;BME280;34421;48.944;9.460;2023-11-21T10:41:33;98135.88;;;15.21;61.50
48622;BME280;34421;48.944;9.460;2023-11-21T10:44:00;98143.28;;;15.14;61.43
48622;BME280;34421;48.944;9.460;2023-11-21T10:46:27;98143.44;;;15.08;61.41
48622;BME280;34421;48.944;9.460;2023-11-21T10:48:53;98140.63;;;14.97;62.11
48622;BME280;34421;48.944;9.460;2023-11-21T10:51:21;98141.13;;;14.94;62.33
48622;BME280;34421;48.944;9.460;2023-11-21T10:53:46;98137.34;;;14.90;61.62
48622;BME280;34421;48.944;9.460;2023-11-21T10:56:13;98137.16;;;14.97;62.14
48622;BME280;34421;48.944;9.460;2023-11-21T10:58:43;98138.44;;;15.11;61.48
48622;BME280;34421;48.944;9.460;2023-11-21T11:01:09;98136.13;;;15.42;61.39
48622;BME280;34421;48.944;9.460;2023-11-21T11:03:37;98140.50;;;15.70;60.25
48622;BME280;34421;48.944;9.460;2023-11-21T11:06:04;98130.78;;;15.91;60.65
48622;BME280;34421;48.944;9.460;2023-11-21T11:08:32;98141.28;;;16.20;59.32
48622;BME280;34421;48.944;9.460;2023-11-21T11:11:00;98136.03;;;16.35;58.92
48622;BME280;34421;48.944;9.460;2023-11-21T11:13:25;98146.72;;;16.25;59.46
48622;BME280;34421;48.944;9.460;2023-11-21T11:15:51;98135.56;;;16.11;60.64
48622;BME280;34421;48.944;9.460;2023-11-21T11:18:21;98138.47;;;16.04;60.83
48622;BME280;34421;48.944;9.460;2023-11-21T11:20:48;98128.78;;;16.03;60.06
48622;BME280;34421;48.944;9.460;2023-11-21T11:26:31;98141.88;;;16.27;59.57
48622;BME280;34421;48.944;9.460;2023-11-21T11:29:07;98134.63;;;16.59;59.26
48622;BME280;34421;48.944;9.460;2023-11-21T11:34:23;98133.53;;;16.88;57.65
48622;BME280;34421;48.944;9.460;2023-11-21T11:37:02;98139.19;;;16.91;57.04
48622;BME280;34421;48.944;9.460;2023-11-21T11:39:35;98140.78;;;16.87;57.47
48622;BME280;34421;48.944;9.460;2023-11-21T11:42:28;98136.06;;;17.04;58.05
48622;BME280;34421;48.944;9.460;2023-11-21T11:44:52;98144.22;;;17.25;57.60
48622;BME280;34421;48.944;9.460;2023-11-21T11:47:29;98142.28;;;17.15;57.76
48622;BME280;34421;48.944;9.460;2023-11-21T11:50:11;98137.50;;;16.80;58.43
48622;BME280;34421;48.944;9.460;2023-11-21T11:52:53;98144.75;;;16.47;58.95
48622;BME280;34421;48.944;9.460;2023-11-21T11:55:23;98141.34;;;16.25;60.30
48622;BME280;34421;48.944;9.460;2023-11-21T11:57:52;98149.94;;;16.00;60.40
48622;BME280;34421;48.944;9.460;2023-11-21T12:00:22;98147.53;;;15.76;61.22
48622;BME280;34421;48.944;9.460;2023-11-21T12:02:58;98142.94;;;15.71;60.78
48622;BME280;34421;48.944;9.460;2023-11-21T12:05:31;98147.59;;;15.59;60.97
48622;BME280;34421;48.944;9.460;2023-11-21T12:08:07;98148.09;;;15.34;61.39
48622;BME280;34421;48.944;9.460;2023-11-21T12:10:35;98161.56;;;15.17;62.05
48622;BME280;34421;48.944;9.460;2023-11-21T12:15:27;98155.97;;;15.02;62.83
48622;BME280;34421;48.944;9.460;2023-11-21T12:17:57;98157.44;;;15.10;61.45
48622;BME280;34421;48.944;9.460;2023-11-21T12:20:24;98163.81;;;15.25;61.91
48622;BME280;34421;48.944;9.460;2023-11-21T12:25:20;98161.53;;;15.56;60.75
48622;BME280;34421;48.944;9.460;2023-11-21T12:27:48;98156.09;;;15.73;59.65
48622;BME280;34421;48.944;9.460;2023-11-21T12:30:15;98161.28;;;15.80;59.32
48622;BME280;34421;48.944;9.460;2023-11-21T12:32:43;98165.03;;;15.79;59.62
48622;BME280;34421;48.944;9.460;2023-11-21T12:35:09;98165.00;;;15.74;59.85
48622;BME280;34421;48.944;9.460;2023-11-21T12:37:37;98164.81;;;15.63;60.41
48622;BME280;34421;48.944;9.460;2023-11-21T12:40:08;98161.88;;;15.43;60.41
48622;BME280;34421;48.944;9.460;2023-11-21T12:42:36;98169.44;;;15.07;61.46
48622;BME280;34421;48.944;9.460;2023-11-21T12:47:51;98180.81;;;14.47;63.45
48622;BME280;34421;48.944;9.460;2023-11-21T12:50:20;98175.44;;;14.30;64.29
48622;BME280;34421;48.944;9.460;2023-11-21T12:52:51;98179.41;;;14.27;64.78
48622;BME280;34421;48.944;9.460;2023-11-21T12:55:20;98185.81;;;14.26;64.88
48622;BME280;34421;48.944;9.460;2023-11-21T12:57:53;98190.59;;;14.24;64.72
48622;BME280;34421;48.944;9.460;2023-11-21T13:00:20;98186.31;;;14.23;64.95
48622;BME280;34421;48.944;9.460;2023-11-21T13:02:54;98183.53;;;14.18;65.40
48622;BME280;34421;48.944;9.460;2023-11-21T13:05:33;98187.75;;;14.14;65.80
48622;BME280;34421;48.944;9.460;2023-11-21T13:08:03;98183.75;;;14.00;65.52
48622;BME280;34421;48.944;9.460;2023-11-21T13:10:32;98185.41;;;13.89;66.52
48622;BME280;34421;48.944;9.460;2023-11-21T13:13:01;98186.38;;;13.71;67.17